sensor_id;sensor_type;location;lat;lon;timestamp;pressure;altitude;pressure_sealevel;temperature;humidity
39897;BME280;25567;48.276;14.242;2022-08-21T00:02:01;98356.47;;;16.74;100.00
39897;BME280;25567;48.276;14.242;2022-08-21T00:04:27;98350.28;;;16.73;100.00
39897;BME280;25567;48.276;14.242;2022-08-21T00:06:56;98348.94;;;16.76;100.00
39897;BME280;25567;48.276;14.242;2022-08-21T00:09:23;98347.06;;;16.76;100.00
39897;BME280;25567;48.276;14.242;2022-08-21T00:11:49;98347.59;;;16.78;100.00
39897;BME280;25567;48.276;14.242;2022-08-21T00:14:16;98341.69;;;16.81;100.00
39897;BME280;25567;48.276;14.242;2022-08-21T00:16:43;98343.03;;;16.79;100.00
39897;BME280;25567;48.276;14.242;2022-08-21T00:19:10;98340.34;;;16.84;100.00
39897;BME280;25567;48.276;14.242;2022-08-21T00:21:37;98337.69;;;16.79;100.00
39897;BME280;25567;48.276;14.242;2022-08-21T00:24:04;98335.84;;;16.74;100.00
39897;BME280;25567;48.276;14.242;2022-08-21T00:26:33;98332.38;;;16.74;100.00
39897;BME280;25567;48.276;14.242;2022-08-21T00:28:59;98325.91;;;16.70;100.00
39897;BME280;25567;48.276;14.242;2022-08-21T00:31:27;98327.25;;;16.72;100.00
39897;BME280;25567;48.276;14.242;2022-08-21T00:33:53;98321.91;;;16.72;100.00
39897;BME280;25567;48.276;14.242;2022-08-21T00:36:26;98324.06;;;16.70;100.00
39897;BME280;25567;48.276;14.242;2022-08-21T00:38:53;98332.59;;;16.72;100.00
39897;BME280;25567;48.276;14.242;2022-08-21T00:41:19;98324.56;;;16.72;100.00
39897;BME280;25567;48.276;14.242;2022-08-21T00:44:05;98327.03;;;16.68;100.00
39897;BME280;25567;48.276;14.242;2022-08-21T00:46:31;98330.75;;;16.67;100.00
39897;BME280;25567;48.276;14.242;2022-08-21T00:48:58;98329.69;;;16.63;100.00
39897;BME280;25567;48.276;14.242;2022-08-21T00:51:31;98327.53;;;16.60;100.00
39897;BME280;25567;48.276;14.242;2022-08-21T00:54:04;98331.84;;;16.61;100.00
39897;BME280;25567;48.276;14.242;2022-08-21T00:56:38;98322.19;;;16.65;100.00
39897;BME280;25567;48.276;14.242;2022-08-21T00:59:07;98329.91;;;16.77;100.00
39897;BME280;25567;48.276;14.242;2022-08-21T01:01:34;98309.91;;;16.64;100.00
39897;BME280;25567;48.276;14.242;2022-08-21T01:04:02;98313.09;;;16.66;100.00
39897;BME280;25567;48.276;14.242;2022-08-21T01:06:28;98314.97;;;16.61;100.00
39897;BME280;25567;48.276;14.242;2022-08-21T01:08:55;98306.16;;;16.55;100.00
39897;BME280;25567;48.276;14.242;2022-08-21T01:11:22;98306.66;;;16.62;100.00
39897;BME280;25567;48.276;14.242;2022-08-21T01:13:49;98304.78;;;16.63;100.00
39897;BME280;25567;48.276;14.242;2022-08-21T01:16:19;98307.47;;;16.63;100.00
39897;BME280;25567;48.276;14.242;2022-08-21T01:18:47;98310.41;;;16.66;100.00
39897;BME280;25567;48.276;14.242;2022-08-21T01:21:18;98301.03;;;16.64;100.00
39897;BME280;25567;48.276;14.242;2022-08-21T01:23:48;98300.25;;;16.63;100.00
39897;BME280;25567;48.276;14.242;2022-08-21T01:26:19;98307.75;;;16.61;100.00
39897;BME280;25567;48.276;14.242;2022-08-21T01:28:58;98301.31;;;16.62;100.00
39897;BME280;25567;48.276;14.242;2022-08-21T01:31:27;98297.56;;;16.63;100.00
39897;BME280;25567;48.276;14.242;2022-08-21T01:33:55;98300.25;;;16.63;100.00
39897;BME280;25567;48.276;14.242;2022-08-21T01:36:23;98298.91;;;16.61;100.00
39897;BME280;25567;48.276;14.242;2022-08-21T01:38:50;98302.38;;;16.61;100.00
39897;BME280;25567;48.276;14.242;2022-08-21T01:41:17;98300.78;;;16.60;100.00
39897;BME280;25567;48.276;14.242;2022-08-21T01:43:44;98298.91;;;16.61;100.00
39897;BME280;25567;48.276;14.242;2022-08-21T01:46:12;98297.03;;;16.61;100.00
39897;BME280;25567;48.276;14.242;2022-08-21T01:48:39;98295.97;;;16.62;100.00
39897;BME280;25567;48.276;14.242;2022-08-21T01:51:06;98289.81;;;16.62;100.00
39897;BME280;25567;48.276;14.242;2022-08-21T01:53:34;98291.41;;;16.63;100.00
39897;BME280;25567;48.276;14.242;2022-08-21T01:56:04;98280.97;;;16.61;100.00
39897;BME280;25567;48.276;14.242;2022-08-21T01:58:39;98279.91;;;16.62;100.00
39897;BME280;25567;48.276;14.242;2022-08-21T02:01:05;98274.00;;;16.60;100.00
39897;BME280;25567;48.276;14.242;2022-08-21T02:03:32;98281.50;;;16.63;100.00
39897;BME280;25567;48.276;14.242;2022-08-21T02:06:03;98280.69;;;16.63;100.00
39897;BME280;25567;48.276;14.242;2022-08-21T02:08:30;98279.09;;;16.62;100.00
39897;BME280;25567;48.276;14.242;2022-08-21T02:10:57;98276.66;;;16.65;100.00
39897;BME280;25567;48.276;14.242;2022-08-21T02:13:24;98279.88;;;16.67;100.00
39897;BME280;25567;48.276;14.242;2022-08-21T02:15:50;98276.16;;;16.63;100.00
39897;BME280;25567;48.276;14.242;2022-08-21T02:18:17;98277.22;;;16.67;100.00
39897;BME280;25567;48.276;14.242;2022-08-21T02:20:47;98270.25;;;16.66;100.00
39897;BME280;25567;48.276;14.242;2022-08-21T02:23:21;98268.63;;;16.65;100.00
39897;BME280;25567;48.276;14.242;2022-08-21T02:25:54;98269.75;;;16.59;100.00
39897;BME280;25567;48.276;14.242;2022-08-21T02:28:21;98261.44;;;16.61;100.00
39897;BME280;25567;48.276;14.242;2022-08-21T02:30:49;98263.03;;;16.62;100.00
39897;BME280;25567;48.276;14.242;2022-08-21T02:33:17;98262.78;;;16.58;100.00
39897;BME280;25567;48.276;14.242;2022-08-21T02:35:51;98265.16;;;16.65;100.00
39897;BME280;25567;48.276;14.242;2022-08-21T02:38:22;98265.97;;;16.60;100.00
39897;BME280;25567;48.276;14.242;2022-08-21T02:40:50;98264.38;;;16.59;100.00
39897;BME280;25567;48.276;14.242;2022-08-21T02:43:19;98257.41;;;16.68;100.00
39897;BME280;25567;48.276;14.242;2022-08-21T02:45:48;98254.44;;;16.70;100.00
39897;BME280;25567;48.276;14.242;2022-08-21T02:48:18;98246.13;;;16.72;100.00
39897;BME280;25567;48.276;14.242;2022-08-21T02:50:51;98252.53;;;16.76;100.00
39897;BME280;25567;48.276;14.242;2022-08-21T02:53:18;98251.22;;;16.63;100.00
39897;BME280;25567;48.276;14.242;2022-08-21T02:55:47;98252.06;;;16.58;100.00
39897;BME280;25567;48.276;14.242;2022-08-21T02:58:17;98244.84;;;16.54;100.00
39897;BME280;25567;48.276;14.242;2022-08-21T03:00:45;98251.28;;;16.53;100.00
39897;BME280;25567;48.276;14.242;2022-08-21T03:03:11;98246.44;;;16.55;100.00
39897;BME280;25567;48.276;14.242;2022-08-21T03:05:39;98243.50;;;16.56;100.00
39897;BME280;25567;48.276;14.242;2022-08-21T03:08:08;98252.56;;;16.60;100.00
39897;BME280;25567;48.276;14.242;2022-08-21T03:10:40;98251.53;;;16.56;100.00
39897;BME280;25567;48.276;14.242;2022-08-21T03:13:07;98255.31;;;16.55;100.00
39897;BME280;25567;48.276;14.242;2022-08-21T03:15:35;98263.84;;;16.57;100.00
39897;BME280;25567;48.276;14.242;2022-08-21T03:18:04;98260.09;;;16.53;100.00
39897;BME280;25567;48.276;14.242;2022-08-21T03:20:31;98256.38;;;16.54;100.00
39897;BME280;25567;48.276;14.242;2022-08-21T03:22:59;98253.69;;;16.59;100.00
39897;BME280;25567;48.276;14.242;2022-08-21T03:25:28;98258.22;;;16.59;100.00
39897;BME280;25567;48.276;14.242;2022-08-21T03:28:11;98255.03;;;16.57;100.00
39897;BME280;25567;48.276;14.242;2022-08-21T03:30:41;98258.78;;;16.50;100.00
39897;BME280;25567;48.276;14.242;2022-08-21T03:33:07;98261.44;;;16.50;100.00
39897;BME280;25567;48.276;14.242;2022-08-21T03:35:38;98260.91;;;16.48;100.00
39897;BME280;25567;48.276;14.242;2022-08-21T03:38:05;98255.31;;;16.50;100.00
39897;BME280;25567;48.276;14.242;2022-08-21T03:40:31;98257.97;;;16.55;100.00
39897;BME280;25567;48.276;14.242;2022-08-21T03:42:58;98252.56;;;16.65;100.00
39897;BME280;25567;48.276;14.242;2022-08-21T03:45:25;98255.53;;;16.59;100.00
39897;BME280;25567;48.276;14.242;2022-08-21T03:47:57;98257.41;;;16.58;100.00
39897;BME280;25567;48.276;14.242;2022-08-21T03:50:26;98255.53;;;16.59;100.00
39897;BME280;25567;48.276;14.242;2022-08-21T03:52:54;98256.34;;;16.59;100.00
39897;BME280;25567;48.276;14.242;2022-08-21T03:55:21;98262.75;;;16.68;100.00
39897;BME280;25567;48.276;14.242;2022-08-21T03:57:48;98266.47;;;16.78;100.00
39897;BME280;25567;48.276;14.242;2022-08-21T04:00:16;98273.69;;;16.72;100.00
39897;BME280;25567;48.276;14.242;2022-08-21T04:02:43;98269.97;;;16.68;100.00
39897;BME280;25567;48.276;14.242;2022-08-21T04:05:11;98267.31;;;16.58;100.00
39897;BME280;25567;48.276;14.242;2022-08-21T04:07:38;98271.88;;;16.57;100.00
39897;BME280;25567;48.276;14.242;2022-08-21T04:10:06;98269.22;;;16.52;100.00
39897;BME280;25567;48.276;14.242;2022-08-21T04:12:33;98274.53;;;16.62;100.00
39897;BME280;25567;48.276;14.242;2022-08-21T04:15:00;98275.09;;;16.54;100.00
39897;BME280;25567;48.276;14.242;2022-08-21T04:17:28;98278.00;;;16.63;100.00
39897;BME280;25567;48.276;14.242;2022-08-21T04:19:54;98280.16;;;16.66;100.00
39897;BME280;25567;48.276;14.242;2022-08-21T04:22:21;98272.91;;;16.66;100.00
39897;BME280;25567;48.276;14.242;2022-08-21T04:24:48;98278.03;;;16.58;100.00
39897;BME280;25567;48.276;14.242;2022-08-21T04:27:16;98290.06;;;16.65;100.00
39897;BME280;25567;48.276;14.242;2022-08-21T04:29:42;98287.44;;;16.55;100.00
39897;BME280;25567;48.276;14.242;2022-08-21T04:32:09;98291.44;;;16.53;100.00
39897;BME280;25567;48.276;14.242;2022-08-21T04:34:35;98289.56;;;16.58;100.00
39897;BME280;25567;48.276;14.242;2022-08-21T04:37:03;98296.25;;;16.61;100.00
39897;BME280;25567;48.276;14.242;2022-08-21T04:39:29;98296.75;;;16.58;100.00
39897;BME280;25567;48.276;14.242;2022-08-21T04:41:56;98295.41;;;16.65;100.00
39897;BME280;25567;48.276;14.242;2022-08-21T04:44:23;98297.56;;;16.63;100.00
39897;BME280;25567;48.276;14.242;2022-08-21T04:46:49;98301.88;;;16.59;100.00
39897;BME280;25567;48.276;14.242;2022-08-21T04:49:16;98305.06;;;16.61;100.00
39897;BME280;25567;48.276;14.242;2022-08-21T04:51:43;98302.94;;;16.58;100.00
39897;BME280;25567;48.276;14.242;2022-08-21T04:54:13;98298.66;;;16.57;100.00
39897;BME280;25567;48.276;14.242;2022-08-21T04:56:46;98301.81;;;16.70;100.00
39897;BME280;25567;48.276;14.242;2022-08-21T04:59:20;98302.63;;;16.70;100.00
39897;BME280;25567;48.276;14.242;2022-08-21T05:01:49;98302.38;;;16.66;100.00
39897;BME280;25567;48.276;14.242;2022-08-21T05:04:21;98308.53;;;16.67;100.00
39897;BME280;25567;48.276;14.242;2022-08-21T05:06:52;98306.38;;;16.74;100.00
39897;BME280;25567;48.276;14.242;2022-08-21T05:09:21;98305.84;;;16.72;100.00
39897;BME280;25567;48.276;14.242;2022-08-21T05:11:48;98315.75;;;16.77;100.00
39897;BME280;25567;48.276;14.242;2022-08-21T05:14:15;98306.66;;;16.73;100.00
39897;BME280;25567;48.276;14.242;2022-08-21T05:16:42;98313.88;;;16.67;100.00
39897;BME280;25567;48.276;14.242;2022-08-21T05:19:10;98314.63;;;16.88;100.00
39897;BME280;25567;48.276;14.242;2022-08-21T05:21:41;98314.69;;;16.78;100.00
39897;BME280;25567;48.276;14.242;2022-08-21T05:24:08;98311.19;;;16.77;100.00
39897;BME280;25567;48.276;14.242;2022-08-21T05:26:35;98313.34;;;16.80;100.00
39897;BME280;25567;48.276;14.242;2022-08-21T05:29:12;98312.00;;;16.73;100.00
39897;BME280;25567;48.276;14.242;2022-08-21T05:31:40;98309.31;;;16.83;100.00
39897;BME280;25567;48.276;14.242;2022-08-21T05:34:07;98309.06;;;16.74;100.00
39897;BME280;25567;48.276;14.242;2022-08-21T05:36:35;98311.44;;;16.76;100.00
39897;BME280;25567;48.276;14.242;2022-08-21T05:39:03;98323.22;;;16.80;100.00
39897;BME280;25567;48.276;14.242;2022-08-21T05:41:29;98324.31;;;16.74;100.00
39897;BME280;25567;48.276;14.242;2022-08-21T05:43:59;98322.16;;;16.76;100.00
39897;BME280;25567;48.276;14.242;2022-08-21T05:46:26;98331.53;;;16.78;100.00
39897;BME280;25567;48.276;14.242;2022-08-21T05:48:53;98326.72;;;16.75;100.00
39897;BME280;25567;48.276;14.242;2022-08-21T05:51:19;98333.66;;;16.76;100.00
39897;BME280;25567;48.276;14.242;2022-08-21T05:53:46;98329.13;;;16.82;100.00
39897;BME280;25567;48.276;14.242;2022-08-21T05:56:14;98334.97;;;16.89;100.00
39897;BME280;25567;48.276;14.242;2022-08-21T05:58:41;98335.53;;;16.86;100.00
39897;BME280;25567;48.276;14.242;2022-08-21T06:01:08;98333.94;;;16.85;100.00
39897;BME280;25567;48.276;14.242;2022-08-21T06:03:38;98337.66;;;16.89;100.00
39897;BME280;25567;48.276;14.242;2022-08-21T06:06:06;98333.66;;;16.87;100.00
39897;BME280;25567;48.276;14.242;2022-08-21T06:08:33;98333.94;;;16.95;100.00
39897;BME280;25567;48.276;14.242;2022-08-21T06:11:01;98335.53;;;16.96;100.00
39897;BME280;25567;48.276;14.242;2022-08-21T06:13:28;98332.56;;;17.03;100.00
39897;BME280;25567;48.276;14.242;2022-08-21T06:16:12;98330.41;;;17.00;100.00
39897;BME280;25567;48.276;14.242;2022-08-21T06:18:43;98335.22;;;17.08;100.00
39897;BME280;25567;48.276;14.242;2022-08-21T06:21:10;98331.72;;;17.08;100.00
39897;BME280;25567;48.276;14.242;2022-08-21T06:23:38;98333.34;;;17.04;100.00
39897;BME280;25567;48.276;14.242;2022-08-21T06:26:06;98341.66;;;17.07;100.00
39897;BME280;25567;48.276;14.242;2022-08-21T06:28:34;98336.03;;;17.09;100.00
39897;BME280;25567;48.276;14.242;2022-08-21T06:31:11;98336.88;;;16.99;100.00
39897;BME280;25567;48.276;14.242;2022-08-21T06:33:37;98334.16;;;17.04;100.00
39897;BME280;25567;48.276;14.242;2022-08-21T06:36:10;98326.94;;;17.05;100.00
39897;BME280;25567;48.276;14.242;2022-08-21T06:38:38;98330.97;;;16.97;100.00
39897;BME280;25567;48.276;14.242;2022-08-21T06:41:05;98337.09;;;17.08;100.00
39897;BME280;25567;48.276;14.242;2022-08-21T06:43:32;98334.69;;;17.11;100.00
39897;BME280;25567;48.276;14.242;2022-08-21T06:46:06;98335.16;;;17.18;100.00
39897;BME280;25567;48.276;14.242;2022-08-21T06:48:33;98329.03;;;17.18;100.00
39897;BME280;25567;48.276;14.242;2022-08-21T06:51:01;98332.22;;;17.20;100.00
39897;BME280;25567;48.276;14.242;2022-08-21T06:53:27;98326.34;;;17.18;100.00
39897;BME280;25567;48.276;14.242;2022-08-21T06:55:54;98325.25;;;17.24;100.00
39897;BME280;25567;48.276;14.242;2022-08-21T06:58:21;98333.88;;;17.11;100.00
39897;BME280;25567;48.276;14.242;2022-08-21T07:00:49;98334.41;;;17.08;100.00
39897;BME280;25567;48.276;14.242;2022-08-21T07:03:22;98335.72;;;17.21;100.00
39897;BME280;25567;48.276;14.242;2022-08-21T07:05:49;98337.06;;;17.13;100.00
39897;BME280;25567;48.276;14.242;2022-08-21T07:08:16;98329.56;;;17.15;100.00
39897;BME280;25567;48.276;14.242;2022-08-21T07:10:43;98335.19;;;17.13;100.00
39897;BME280;25567;48.276;14.242;2022-08-21T07:13:09;98329.25;;;17.27;100.00
39897;BME280;25567;48.276;14.242;2022-08-21T07:15:36;98334.06;;;17.25;100.00
39897;BME280;25567;48.276;14.242;2022-08-21T07:18:03;98332.47;;;17.24;100.00
39897;BME280;25567;48.276;14.242;2022-08-21T07:20:31;98326.50;;;17.37;100.00
39897;BME280;25567;48.276;14.242;2022-08-21T07:23:00;98326.03;;;17.25;100.00
39897;BME280;25567;48.276;14.242;2022-08-21T07:25:28;98329.78;;;17.24;100.00
39897;BME280;25567;48.276;14.242;2022-08-21T07:27:55;98322.28;;;17.26;100.00
39897;BME280;25567;48.276;14.242;2022-08-21T07:30:22;98323.34;;;17.30;100.00
39897;BME280;25567;48.276;14.242;2022-08-21T07:32:49;98331.06;;;17.42;100.00
39897;BME280;25567;48.276;14.242;2022-08-21T07:35:18;98326.28;;;17.33;100.00
39897;BME280;25567;48.276;14.242;2022-08-21T07:37:46;98325.94;;;17.45;100.00
39897;BME280;25567;48.276;14.242;2022-08-21T07:40:13;98333.16;;;17.45;100.00
39897;BME280;25567;48.276;14.242;2022-08-21T07:42:43;98320.22;;;17.57;100.00
39897;BME280;25567;48.276;14.242;2022-08-21T07:45:10;98327.53;;;17.46;100.00
39897;BME280;25567;48.276;14.242;2022-08-21T07:47:37;98332.59;;;17.53;100.00
39897;BME280;25567;48.276;14.242;2022-08-21T07:50:09;98329.94;;;17.48;100.00
39897;BME280;25567;48.276;14.242;2022-08-21T07:52:38;98331.78;;;17.53;100.00
39897;BME280;25567;48.276;14.242;2022-08-21T07:55:07;98334.22;;;17.49;100.00
39897;BME280;25567;48.276;14.242;2022-08-21T07:57:34;98333.69;;;17.52;100.00
39897;BME280;25567;48.276;14.242;2022-08-21T08:00:01;98332.34;;;17.55;100.00
39897;BME280;25567;48.276;14.242;2022-08-21T08:02:29;98331.75;;;17.63;100.00
39897;BME280;25567;48.276;14.242;2022-08-21T08:05:00;98327.19;;;17.58;100.00
39897;BME280;25567;48.276;14.242;2022-08-21T08:07:27;98335.25;;;17.58;100.00
39897;BME280;25567;48.276;14.242;2022-08-21T08:09:54;98331.00;;;17.52;100.00
39897;BME280;25567;48.276;14.242;2022-08-21T08:12:21;98327.00;;;17.49;100.00
39897;BME280;25567;48.276;14.242;2022-08-21T08:14:47;98328.31;;;17.52;100.00
39897;BME280;25567;48.276;14.242;2022-08-21T08:17:14;98328.75;;;17.70;100.00
39897;BME280;25567;48.276;14.242;2022-08-21T08:19:41;98321.81;;;17.63;100.00
39897;BME280;25567;48.276;14.242;2022-08-21T08:22:16;98325.56;;;17.62;100.00
39897;BME280;25567;48.276;14.242;2022-08-21T08:24:46;98328.22;;;17.67;100.00
39897;BME280;25567;48.276;14.242;2022-08-21T08:27:13;98331.19;;;17.61;100.00
39897;BME280;25567;48.276;14.242;2022-08-21T08:29:39;98336.28;;;17.62;100.00
39897;BME280;25567;48.276;14.242;2022-08-21T08:32:06;98326.31;;;17.73;100.00
39897;BME280;25567;48.276;14.242;2022-08-21T08:34:35;98332.47;;;17.74;100.00
39897;BME280;25567;48.276;14.242;2022-08-21T08:37:03;98322.81;;;17.73;100.00
39897;BME280;25567;48.276;14.242;2022-08-21T08:39:32;98325.00;;;17.71;100.00
39897;BME280;25567;48.276;14.242;2022-08-21T08:42:05;98326.59;;;17.66;100.00
39897;BME280;25567;48.276;14.242;2022-08-21T08:45:11;98326.03;;;17.75;100.00
39897;BME280;25567;48.276;14.242;2022-08-21T08:47:42;98325.25;;;17.69;100.00
39897;BME280;25567;48.276;14.242;2022-08-21T08:50:17;98329.75;;;17.79;100.00
39897;BME280;25567;48.276;14.242;2022-08-21T08:52:56;98319.78;;;17.84;100.00
39897;BME280;25567;48.276;14.242;2022-08-21T08:55:36;98327.88;;;17.79;100.00
39897;BME280;25567;48.276;14.242;2022-08-21T08:58:06;98324.41;;;17.79;100.00
39897;BME280;25567;48.276;14.242;2022-08-21T09:00:33;98323.50;;;17.94;100.00
39897;BME280;25567;48.276;14.242;2022-08-21T09:03:02;98324.03;;;17.91;100.00
39897;BME280;25567;48.276;14.242;2022-08-21T09:05:45;98330.00;;;17.82;100.00
39897;BME280;25567;48.276;14.242;2022-08-21T09:08:24;98328.69;;;17.80;100.00
39897;BME280;25567;48.276;14.242;2022-08-21T09:19:44;98321.34;;;17.96;100.00
39897;BME280;25567;48.276;14.242;2022-08-21T09:25:04;98319.47;;;17.91;100.00
39897;BME280;25567;48.276;14.242;2022-08-21T09:27:34;98320.53;;;17.95;100.00
39897;BME280;25567;48.276;14.242;2022-08-21T09:30:04;98329.13;;;17.97;100.00
39897;BME280;25567;48.276;14.242;2022-08-21T09:32:34;98330.13;;;18.07;100.00
39897;BME280;25567;48.276;14.242;2022-08-21T09:37:44;98336.59;;;18.00;100.00
39897;BME280;25567;48.276;14.242;2022-08-21T09:43:01;98333.34;;;18.04;100.00
39897;BME280;25567;48.276;14.242;2022-08-21T09:45:31;98325.88;;;18.00;100.00
39897;BME280;25567;48.276;14.242;2022-08-21T09:48:19;98328.09;;;17.93;100.00
39897;BME280;25567;48.276;14.242;2022-08-21T09:50:47;98324.28;;;17.94;100.00
39897;BME280;25567;48.276;14.242;2022-08-21T09:53:22;98321.63;;;17.94;100.00
39897;BME280;25567;48.276;14.242;2022-08-21T09:55:56;98316.00;;;17.96;100.00
39897;BME280;25567;48.276;14.242;2022-08-21T09:58:41;98315.09;;;18.06;100.00
39897;BME280;25567;48.276;14.242;2022-08-21T10:01:14;98319.91;;;18.09;100.00
39897;BME280;25567;48.276;14.242;2022-08-21T10:03:41;98319.38;;;18.07;100.00
39897;BME280;25567;48.276;14.242;2022-08-21T10:06:09;98313.50;;;18.05;100.00
39897;BME280;25567;48.276;14.242;2022-08-21T10:08:39;98308.84;;;18.15;100.00
39897;BME280;25567;48.276;14.242;2022-08-21T10:11:13;98306.72;;;18.12;100.00
39897;BME280;25567;48.276;14.242;2022-08-21T10:14:03;98308.50;;;18.22;100.00
39897;BME280;25567;48.276;14.242;2022-08-21T10:17:07;98308.50;;;18.22;100.00
39897;BME280;25567;48.276;14.242;2022-08-21T10:19:51;98306.06;;;18.26;100.00
39897;BME280;25567;48.276;14.242;2022-08-21T10:25:12;98302.72;;;18.39;100.00
39897;BME280;25567;48.276;14.242;2022-08-21T10:28:09;98305.88;;;18.46;100.00
39897;BME280;25567;48.276;14.242;2022-08-21T10:30:46;98304.00;;;18.47;100.00
39897;BME280;25567;48.276;14.242;2022-08-21T10:47:05;98321.53;;;18.05;100.00
39897;BME280;25567;48.276;14.242;2022-08-21T10:55:06;98324.91;;;17.81;100.00
39897;BME280;25567;48.276;14.242;2022-08-21T10:57:54;98322.75;;;17.83;100.00
39897;BME280;25567;48.276;14.242;2022-08-21T11:00:29;98318.22;;;17.78;100.00
39897;BME280;25567;48.276;14.242;2022-08-21T11:03:05;98310.44;;;17.77;100.00
39897;BME280;25567;48.276;14.242;2022-08-21T11:05:40;98318.00;;;17.75;100.00
39897;BME280;25567;48.276;14.242;2022-08-21T11:08:18;98310.94;;;17.84;100.00
39897;BME280;25567;48.276;14.242;2022-08-21T11:10:53;98309.63;;;17.81;100.00
39897;BME280;25567;48.276;14.242;2022-08-21T11:16:05;98314.91;;;17.52;100.00
39897;BME280;25567;48.276;14.242;2022-08-21T11:18:41;98314.13;;;17.46;100.00
39897;BME280;25567;48.276;14.242;2022-08-21T11:21:27;98314.13;;;17.46;100.00
39897;BME280;25567;48.276;14.242;2022-08-21T11:24:10;98309.31;;;17.43;100.00
39897;BME280;25567;48.276;14.242;2022-08-21T11:26:45;98308.75;;;17.46;100.00
39897;BME280;25567;48.276;14.242;2022-08-21T11:29:24;98310.63;;;17.51;100.00
39897;BME280;25567;48.276;14.242;2022-08-21T11:35:13;98298.31;;;17.45;100.00
39897;BME280;25567;48.276;14.242;2022-08-21T11:40:59;98277.16;;;17.43;100.00
39897;BME280;25567;48.276;14.242;2022-08-21T11:52:18;98288.88;;;17.58;100.00
39897;BME280;25567;48.276;14.242;2022-08-21T11:55:04;98286.34;;;17.72;100.00
39897;BME280;25567;48.276;14.242;2022-08-21T11:57:53;98288.91;;;17.87;100.00
39897;BME280;25567;48.276;14.242;2022-08-21T12:00:33;98299.69;;;17.82;100.00
39897;BME280;25567;48.276;14.242;2022-08-21T12:06:01;98287.44;;;17.71;100.00
39897;BME280;25567;48.276;14.242;2022-08-21T12:11:02;98288.50;;;17.70;100.00
39897;BME280;25567;48.276;14.242;2022-08-21T12:13:32;98290.88;;;17.76;100.00
39897;BME280;25567;48.276;14.242;2022-08-21T12:16:13;98288.78;;;17.73;100.00
39897;BME280;25567;48.276;14.242;2022-08-21T12:18:41;98290.91;;;17.71;100.00
39897;BME280;25567;48.276;14.242;2022-08-21T12:21:24;98290.88;;;17.76;100.00
39897;BME280;25567;48.276;14.242;2022-08-21T12:26:49;98295.59;;;17.90;100.00
39897;BME280;25567;48.276;14.242;2022-08-21T12:31:55;98299.69;;;17.82;100.00
39897;BME280;25567;48.276;14.242;2022-08-21T12:34:31;98302.38;;;17.82;100.00
39897;BME280;25567;48.276;14.242;2022-08-21T12:39:46;98286.88;;;17.74;100.00
39897;BME280;25567;48.276;14.242;2022-08-21T12:42:18;98286.13;;;17.68;100.00
39897;BME280;25567;48.276;14.242;2022-08-21T12:44:51;98279.91;;;17.73;100.00
39897;BME280;25567;48.276;14.242;2022-08-21T12:47:31;98274.53;;;17.73;100.00
39897;BME280;25567;48.276;14.242;2022-08-21T12:50:08;98278.25;;;17.77;100.00
39897;BME280;25567;48.276;14.242;2022-08-21T12:52:38;98268.59;;;17.76;100.00
39897;BME280;25567;48.276;14.242;2022-08-21T12:55:12;98268.13;;;17.68;100.00
39897;BME280;25567;48.276;14.242;2022-08-21T12:57:40;98264.88;;;17.72;100.00
39897;BME280;25567;48.276;14.242;2022-08-21T13:00:09;98267.81;;;17.75;100.00
39897;BME280;25567;48.276;14.242;2022-08-21T13:02:47;98269.75;;;17.70;100.00
39897;BME280;25567;48.276;14.242;2022-08-21T13:05:23;98270.22;;;17.77;100.00
39897;BME280;25567;48.276;14.242;2022-08-21T13:07:51;98271.81;;;17.78;100.00
39897;BME280;25567;48.276;14.242;2022-08-21T13:12:48;98268.09;;;17.74;100.00
39897;BME280;25567;48.276;14.242;2022-08-21T13:15:22;98268.31;;;17.82;100.00
39897;BME280;25567;48.276;14.242;2022-08-21T13:17:59;98260.81;;;17.79;100.00
39897;BME280;25567;48.276;14.242;2022-08-21T13:23:01;98265.84;;;17.86;100.00
39897;BME280;25567;48.276;14.242;2022-08-21T13:25:33;98275.03;;;17.80;100.00
39897;BME280;25567;48.276;14.242;2022-08-21T13:28:08;98272.44;;;17.70;100.00
39897;BME280;25567;48.276;14.242;2022-08-21T13:30:40;98274.03;;;17.71;100.00
39897;BME280;25567;48.276;14.242;2022-08-21T13:33:10;98271.56;;;17.74;100.00
39897;BME280;25567;48.276;14.242;2022-08-21T13:35:51;98269.16;;;17.73;100.00
39897;BME280;25567;48.276;14.242;2022-08-21T13:38:22;98263.50;;;17.79;100.00
39897;BME280;25567;48.276;14.242;2022-08-21T13:40:55;98265.69;;;17.72;100.00
39897;BME280;25567;48.276;14.242;2022-08-21T13:43:31;98270.78;;;17.74;100.00
39897;BME280;25567;48.276;14.242;2022-08-21T13:45:59;98262.97;;;17.77;100.00
39897;BME280;25567;48.276;14.242;2022-08-21T13:48:29;98254.13;;;17.77;100.00
39897;BME280;25567;48.276;14.242;2022-08-21T13:50:58;98265.09;;;17.80;100.00
39897;BME280;25567;48.276;14.242;2022-08-21T13:55:58;98259.13;;;17.94;100.00
39897;BME280;25567;48.276;14.242;2022-08-21T13:58:30;98268.19;;;17.98;100.00
39897;BME280;25567;48.276;14.242;2022-08-21T14:00:59;98256.84;;;18.06;100.00
39897;BME280;25567;48.276;14.242;2022-08-21T14:05:57;98256.75;;;18.16;100.00
39897;BME280;25567;48.276;14.242;2022-08-21T14:08:29;98262.03;;;18.27;100.00
39897;BME280;25567;48.276;14.242;2022-08-21T14:10:58;98253.66;;;18.33;100.00
39897;BME280;25567;48.276;14.242;2022-08-21T14:16:01;98254.19;;;18.36;100.00
39897;BME280;25567;48.276;14.242;2022-08-21T14:18:29;98250.88;;;18.44;100.00
39897;BME280;25567;48.276;14.242;2022-08-21T14:21:05;98248.19;;;18.44;100.00